Time;durP1;ratioP1;P1;durP2;ratioP2;P2;SDS_P1;SDS_P2;PMS_P1;PMS_P2;Temp;Humidity;BMP_temperature;BMP_pressure;BME280_temperature;BME280_humidity;BME280_pressure;Samples;Min_cycle;Max_cycle;Signal;HPM_P1;HPM_P2
2024/04/18 00:02:09;;;;;;;3.58;2.10;;;;;;;;;;5367485;26;20020;-73
2024/04/18 00:04:35;;;;;;;3.55;1.83;;;;;;;;;;5347522;26;20417;-69
2024/04/18 00:07:02;;;;;;;3.05;2.08;;;;;;;;;;5360299;26;20012;-70
2024/04/18 00:09:28;;;;;;;6.53;2.17;;;;;;;;;;5360759;26;20015;-68
2024/04/18 00:11:54;;;;;;;3.60;1.75;;;;;;;;;;5358833;26;20017;-68
2024/04/18 00:14:20;;;;;;;4.32;2.40;;;;;;;;;;5353034;26;20634;-69
2024/04/18 00:16:46;;;;;;;4.28;2.13;;;;;;;;;;5359289;26;20393;-70
2024/04/18 00:19:12;;;;;;;3.40;2.13;;;;;;;;;;5362202;26;20080;-69
2024/04/18 00:21:37;;;;;;;4.10;2.10;;;;;;;;;;5366460;26;19996;-68
2024/04/18 00:24:03;;;;;;;5.88;2.63;;;;;;;;;;5359791;26;20016;-69
2024/04/18 00:26:29;;;;;;;3.75;2.00;;;;;;;;;;5356877;26;20001;-70
2024/04/18 00:28:55;;;;;;;4.53;2.58;;;;;;;;;;5367707;26;20051;-69
2024/04/18 00:31:21;;;;;;;5.50;2.67;;;;;;;;;;5365051;26;20417;-69
2024/04/18 00:33:47;;;;;;;4.53;2.60;;;;;;;;;;5361792;26;20088;-69
2024/04/18 00:36:13;;;;;;;5.60;2.28;;;;;;;;;;5353497;26;20004;-68
2024/04/18 00:38:39;;;;;;;5.88;2.65;;;;;;;;;;5364176;26;20011;-69
2024/04/18 00:41:06;;;;;;;3.25;2.08;;;;;;;;;;5359200;26;20024;-69
2024/04/18 00:43:33;;;;;;;3.30;1.98;;;;;;;;;;5359824;26;20000;-69
2024/04/18 00:45:59;;;;;;;4.45;2.35;;;;;;;;;;5355671;26;20028;-69
2024/04/18 00:48:26;;;;;;;3.92;2.00;;;;;;;;;;5353937;26;20001;-68
2024/04/18 00:50:54;;;;;;;4.05;2.25;;;;;;;;;;5358271;26;20081;-69
2024/04/18 00:53:20;;;;;;;6.10;2.25;;;;;;;;;;5349354;26;20082;-69
2024/04/18 00:55:46;;;;;;;4.35;2.40;;;;;;;;;;5354312;26;20001;-68
2024/04/18 00:58:12;;;;;;;4.95;2.22;;;;;;;;;;5364122;26;20077;-69
2024/04/18 01:00:39;;;;;;;4.40;2.08;;;;;;;;;;5363381;26;20074;-69
2024/04/18 01:03:05;;;;;;;4.57;2.28;;;;;;;;;;5360837;26;20004;-69
2024/04/18 01:05:32;;;;;;;5.70;2.75;;;;;;;;;;5353590;26;20010;-69
2024/04/18 01:07:59;;;;;;;4.28;2.47;;;;;;;;;;5364732;26;20007;-68
2024/04/18 01:10:25;;;;;;;7.43;2.50;;;;;;;;;;5355381;26;20024;-68
2024/04/18 01:13:01;;;;;;;5.53;2.35;;;;;;;;;;5354326;26;20426;-69
2024/04/18 01:15:27;;;;;;;7.20;2.70;;;;;;;;;;5351671;26;20000;-69
2024/04/18 01:17:53;;;;;;;4.13;2.40;;;;;;;;;;5353378;26;20000;-69
2024/04/18 01:20:21;;;;;;;5.85;3.35;;;;;;;;;;5355235;26;19997;-69
2024/04/18 01:22:47;;;;;;;4.18;2.35;;;;;;;;;;5359569;26;20016;-69
2024/04/18 01:25:13;;;;;;;4.45;2.42;;;;;;;;;;5362104;26;20000;-69
2024/04/18 01:27:39;;;;;;;5.47;2.88;;;;;;;;;;5356900;26;20016;-70
2024/04/18 01:30:05;;;;;;;6.20;2.60;;;;;;;;;;5353938;26;20000;-69
2024/04/18 01:32:35;;;;;;;4.90;2.55;;;;;;;;;;5357210;26;20000;-69
2024/04/18 01:35:01;;;;;;;9.32;3.30;;;;;;;;;;5363054;26;19997;-69
2024/04/18 01:37:27;;;;;;;4.60;2.88;;;;;;;;;;5357801;26;20289;-69
2024/04/18 01:39:53;;;;;;;6.43;3.40;;;;;;;;;;5351512;26;20023;-69
2024/04/18 01:42:19;;;;;;;6.43;3.15;;;;;;;;;;5362175;26;20032;-70
2024/04/18 01:44:46;;;;;;;5.05;2.25;;;;;;;;;;5359249;26;20323;-70
2024/04/18 01:47:12;;;;;;;5.50;2.92;;;;;;;;;;5360504;26;20959;-69
2024/04/18 01:49:38;;;;;;;6.22;2.88;;;;;;;;;;5355031;26;20102;-69
2024/04/18 01:52:05;;;;;;;7.00;3.28;;;;;;;;;;5360297;26;20109;-69
2024/04/18 01:54:31;;;;;;;5.25;3.25;;;;;;;;;;5359772;26;20435;-70
2024/04/18 01:56:57;;;;;;;6.55;3.13;;;;;;;;;;5362377;26;20479;-68
2024/04/18 01:59:23;;;;;;;7.50;3.33;;;;;;;;;;5352315;26;20054;-68
2024/04/18 02:01:49;;;;;;;4.57;2.75;;;;;;;;;;5357169;26;20001;-69
2024/04/18 02:04:17;;;;;;;8.50;4.25;;;;;;;;;;5360484;26;20131;-69
2024/04/18 02:06:43;;;;;;;5.70;3.50;;;;;;;;;;5350739;26;20020;-68
2024/04/18 02:09:09;;;;;;;7.38;3.83;;;;;;;;;;5355597;26;20011;-68
2024/04/18 02:11:36;;;;;;;7.80;3.83;;;;;;;;;;5340342;26;20015;-69
2024/04/18 02:14:02;;;;;;;7.80;3.75;;;;;;;;;;5341006;26;20005;-68
2024/04/18 02:16:28;;;;;;;9.43;4.07;;;;;;;;;;5367197;26;20413;-68
2024/04/18 02:18:54;;;;;;;7.72;3.63;;;;;;;;;;5362383;26;20000;-71
2024/04/18 02:21:20;;;;;;;7.60;4.07;;;;;;;;;;5357387;26;20011;-68
2024/04/18 02:23:46;;;;;;;10.80;4.60;;;;;;;;;;5380418;26;20004;-69
2024/04/18 02:26:12;;;;;;;7.57;3.92;;;;;;;;;;5360662;26;19997;-69
2024/04/18 02:28:38;;;;;;;6.78;3.30;;;;;;;;;;5345458;26;20024;-69
2024/04/18 02:31:04;;;;;;;11.20;4.18;;;;;;;;;;5364717;26;20347;-69
2024/04/18 02:33:30;;;;;;;9.82;4.90;;;;;;;;;;5367353;26;20268;-68
2024/04/18 02:35:56;;;;;;;10.40;4.72;;;;;;;;;;5363391;26;20415;-68
2024/04/18 02:38:22;;;;;;;8.45;4.40;;;;;;;;;;5361970;26;20016;-69
2024/04/18 02:40:48;;;;;;;9.65;4.65;;;;;;;;;;5361484;26;20091;-68
2024/04/18 02:43:13;;;;;;;10.50;4.55;;;;;;;;;;5367848;26;20108;-70
2024/04/18 02:45:39;;;;;;;9.23;5.30;;;;;;;;;;5370615;26;20486;-69
2024/04/18 02:48:05;;;;;;;10.23;4.68;;;;;;;;;;5359560;26;20004;-68
2024/04/18 02:50:31;;;;;;;9.02;4.00;;;;;;;;;;5355005;26;20028;-69
2024/04/18 02:52:57;;;;;;;10.55;4.97;;;;;;;;;;5358560;26;20443;-68
2024/04/18 02:55:23;;;;;;;8.07;4.20;;;;;;;;;;5362229;26;20012;-69
2024/04/18 02:57:49;;;;;;;9.20;3.97;;;;;;;;;;5359640;26;20011;-68
2024/04/18 03:00:15;;;;;;;7.80;4.35;;;;;;;;;;5353888;26;20420;-68
2024/04/18 03:02:41;;;;;;;10.52;4.60;;;;;;;;;;5360157;26;20000;-69
2024/04/18 03:05:07;;;;;;;8.02;4.22;;;;;;;;;;5360837;26;20370;-69
2024/04/18 03:07:33;;;;;;;8.15;4.28;;;;;;;;;;5361729;26;20041;-69
2024/04/18 03:09:59;;;;;;;8.55;4.57;;;;;;;;;;5356574;26;20001;-69
2024/04/18 03:12:25;;;;;;;7.45;3.78;;;;;;;;;;5358782;26;20011;-69
2024/04/18 03:14:51;;;;;;;11.05;5.35;;;;;;;;;;5358940;26;20046;-70
2024/04/18 03:17:17;;;;;;;9.68;4.60;;;;;;;;;;5344017;26;20406;-68
2024/04/18 03:19:43;;;;;;;9.45;4.55;;;;;;;;;;5361494;26;20020;-70
2024/04/18 03:22:09;;;;;;;7.75;4.25;;;;;;;;;;5358922;26;20000;-69
2024/04/18 03:24:35;;;;;;;15.88;6.07;;;;;;;;;;5371235;26;20433;-69
2024/04/18 03:27:01;;;;;;;9.75;4.40;;;;;;;;;;5349145;26;20190;-69
2024/04/18 03:29:27;;;;;;;8.25;4.35;;;;;;;;;;5358368;26;20343;-69
2024/04/18 03:31:53;;;;;;;9.35;4.20;;;;;;;;;;5367575;26;20011;-69
2024/04/18 03:34:19;;;;;;;11.98;4.80;;;;;;;;;;5358336;26;20001;-68
2024/04/18 03:36:47;;;;;;;11.18;4.50;;;;;;;;;;5347293;26;20337;-71
2024/04/18 03:39:13;;;;;;;12.10;5.45;;;;;;;;;;5366605;26;20077;-69
2024/04/18 03:41:39;;;;;;;9.65;4.18;;;;;;;;;;5357334;26;20009;-68
2024/04/18 03:44:06;;;;;;;8.23;4.07;;;;;;;;;;5369753;26;20335;-69
2024/04/18 03:46:32;;;;;;;10.20;4.75;;;;;;;;;;5357557;26;20032;-69
2024/04/18 03:48:58;;;;;;;9.82;4.80;;;;;;;;;;5351995;26;20508;-68
2024/04/18 03:51:26;;;;;;;9.75;4.82;;;;;;;;;;5364714;26;20028;-68
2024/04/18 03:53:52;;;;;;;9.98;4.82;;;;;;;;;;5367917;26;20000;-69
2024/04/18 03:56:18;;;;;;;11.23;4.57;;;;;;;;;;5355549;26;20000;-69
2024/04/18 03:58:44;;;;;;;10.73;4.32;;;;;;;;;;5355858;26;20037;-68
2024/04/18 04:01:10;;;;;;;9.75;4.10;;;;;;;;;;5351503;26;20286;-68
2024/04/18 04:03:36;;;;;;;14.32;4.80;;;;;;;;;;5361989;26;20112;-68
2024/04/18 04:06:02;;;;;;;8.85;4.78;;;;;;;;;;5369131;26;20024;-70
2024/04/18 04:08:28;;;;;;;8.30;4.95;;;;;;;;;;5361396;26;20004;-68
2024/04/18 04:10:54;;;;;;;13.15;5.10;;;;;;;;;;5354067;26;20023;-68
2024/04/18 04:13:20;;;;;;;12.00;5.05;;;;;;;;;;5356388;26;20001;-69
2024/04/18 04:15:49;;;;;;;10.27;5.15;;;;;;;;;;5357521;26;20072;-69
2024/04/18 04:18:15;;;;;;;8.63;4.65;;;;;;;;;;5367894;26;20396;-69
2024/04/18 04:20:44;;;;;;;9.38;4.70;;;;;;;;;;5356942;26;20072;-69
2024/04/18 04:23:10;;;;;;;11.25;5.25;;;;;;;;;;5365786;26;20028;-69
2024/04/18 04:25:36;;;;;;;10.30;4.68;;;;;;;;;;5352747;26;20089;-69
2024/04/18 04:28:02;;;;;;;15.02;5.13;;;;;;;;;;5355349;26;20024;-67
2024/04/18 04:30:28;;;;;;;10.15;4.93;;;;;;;;;;5353906;26;20024;-67
2024/04/18 04:32:54;;;;;;;11.18;4.65;;;;;;;;;;5340529;26;20005;-68
2024/04/18 04:35:20;;;;;;;9.77;5.60;;;;;;;;;;5356275;26;20001;-67
2024/04/18 04:37:46;;;;;;;9.02;4.68;;;;;;;;;;5366242;26;20122;-68
2024/04/18 04:40:12;;;;;;;8.93;4.45;;;;;;;;;;5363213;26;20408;-67
2024/04/18 04:42:38;;;;;;;8.88;4.22;;;;;;;;;;5361798;26;20087;-67
2024/04/18 04:45:04;;;;;;;9.30;5.07;;;;;;;;;;5352648;26;20000;-67
2024/04/18 04:47:32;;;;;;;9.95;5.43;;;;;;;;;;5364907;26;20001;-67
2024/04/18 04:49:58;;;;;;;12.73;4.85;;;;;;;;;;5339476;26;20052;-67
2024/04/18 04:52:24;;;;;;;10.98;5.70;;;;;;;;;;5350937;26;20009;-67
2024/04/18 04:54:50;;;;;;;12.45;5.53;;;;;;;;;;5351401;26;20298;-67
2024/04/18 04:57:16;;;;;;;9.60;4.82;;;;;;;;;;5356697;26;20000;-67
2024/04/18 04:59:42;;;;;;;12.07;5.32;;;;;;;;;;5365826;26;20080;-67
2024/04/18 05:02:08;;;;;;;12.65;4.80;;;;;;;;;;5354123;26;20000;-67
2024/04/18 05:04:35;;;;;;;10.38;4.80;;;;;;;;;;5352530;26;20823;-67
2024/04/18 05:07:00;;;;;;;8.68;4.50;;;;;;;;;;5360111;26;20115;-67
2024/04/18 05:09:26;;;;;;;10.07;4.80;;;;;;;;;;5359193;26;20014;-67
2024/04/18 05:11:52;;;;;;;9.95;4.50;;;;;;;;;;5354658;26;19996;-67
2024/04/18 05:14:22;;;;;;;11.55;5.28;;;;;;;;;;5359934;26;20118;-67
2024/04/18 05:16:47;;;;;;;10.82;5.38;;;;;;;;;;5369254;26;20020;-67
2024/04/18 05:19:13;;;;;;;11.18;5.43;;;;;;;;;;5362715;26;20120;-67
2024/04/18 05:21:39;;;;;;;11.27;5.82;;;;;;;;;;5365572;26;20320;-67
2024/04/18 05:24:05;;;;;;;10.30;5.32;;;;;;;;;;5353781;26;19992;-67
2024/04/18 05:26:32;;;;;;;11.95;5.57;;;;;;;;;;5360456;26;20016;-67
2024/04/18 05:31:47;;;;;;;12.82;5.85;;;;;;;;;;5351197;26;20034;-70
2024/04/18 05:34:13;;;;;;;14.52;6.75;;;;;;;;;;5364274;26;20070;-71
2024/04/18 05:36:39;;;;;;;12.45;5.28;;;;;;;;;;5354276;26;20036;-71
2024/04/18 05:39:05;;;;;;;12.38;6.15;;;;;;;;;;5357666;26;20004;-71
2024/04/18 05:41:32;;;;;;;13.55;5.88;;;;;;;;;;5338929;26;20016;-71
2024/04/18 05:43:58;;;;;;;14.10;6.38;;;;;;;;;;5363048;26;20004;-70
2024/04/18 05:46:24;;;;;;;12.35;6.15;;;;;;;;;;5366573;26;20004;-68
2024/04/18 05:48:51;;;;;;;10.68;5.70;;;;;;;;;;5362827;26;20019;-68
2024/04/18 05:51:17;;;;;;;12.65;6.70;;;;;;;;;;5358203;26;20004;-67
2024/04/18 05:53:43;;;;;;;14.80;5.68;;;;;;;;;;5369150;26;20270;-67
2024/04/18 05:56:08;;;;;;;14.05;5.95;;;;;;;;;;5361836;26;20072;-67
2024/04/18 05:58:36;;;;;;;12.73;5.78;;;;;;;;;;5362381;26;20420;-67
2024/04/18 06:01:04;;;;;;;12.75;5.57;;;;;;;;;;5360677;26;20352;-68
2024/04/18 06:03:30;;;;;;;13.00;6.55;;;;;;;;;;5362887;26;20425;-67
2024/04/18 06:05:57;;;;;;;11.95;5.88;;;;;;;;;;5356108;26;20011;-68
2024/04/18 06:08:23;;;;;;;10.20;5.22;;;;;;;;;;5372003;26;20415;-67
2024/04/18 06:10:49;;;;;;;13.48;6.38;;;;;;;;;;5366116;26;20301;-67
2024/04/18 06:13:15;;;;;;;13.25;6.80;;;;;;;;;;5356810;26;20011;-68
2024/04/18 06:15:44;;;;;;;15.30;6.47;;;;;;;;;;5371552;26;20016;-68
2024/04/18 06:18:13;;;;;;;15.48;6.93;;;;;;;;;;5359992;26;20387;-68
2024/04/18 06:20:57;;;;;;;14.10;7.03;;;;;;;;;;5359052;26;20100;-68
2024/04/18 06:23:23;;;;;;;13.07;6.45;;;;;;;;;;5379772;26;20010;-68
2024/04/18 06:25:49;;;;;;;12.40;6.18;;;;;;;;;;5371590;26;19996;-68
2024/04/18 06:28:15;;;;;;;12.05;5.35;;;;;;;;;;5363058;26;20112;-68
2024/04/18 06:30:41;;;;;;;10.43;5.82;;;;;;;;;;5359159;26;20044;-68
2024/04/18 06:33:07;;;;;;;10.85;6.05;;;;;;;;;;5358613;26;20012;-68
2024/04/18 06:35:33;;;;;;;12.68;6.32;;;;;;;;;;5359574;26;20116;-68
2024/04/18 06:37:59;;;;;;;12.55;6.00;;;;;;;;;;5349396;26;20001;-68
2024/04/18 06:40:25;;;;;;;11.90;6.50;;;;;;;;;;5351491;26;20011;-68
2024/04/18 06:42:52;;;;;;;14.18;5.60;;;;;;;;;;5351423;26;20298;-68
2024/04/18 06:45:19;;;;;;;12.80;6.03;;;;;;;;;;5353179;26;20521;-67
2024/04/18 06:47:44;;;;;;;11.70;5.55;;;;;;;;;;5351806;26;20007;-68
2024/04/18 06:50:10;;;;;;;11.68;6.05;;;;;;;;;;5355363;26;19996;-68
2024/04/18 06:52:37;;;;;;;10.88;5.80;;;;;;;;;;5362068;26;20015;-68
2024/04/18 06:55:03;;;;;;;10.77;5.68;;;;;;;;;;5354456;26;20004;-69
2024/04/18 06:57:28;;;;;;;10.55;5.22;;;;;;;;;;5357289;26;20086;-68
2024/04/18 06:59:54;;;;;;;10.63;5.43;;;;;;;;;;5353304;26;20023;-69
2024/04/18 07:02:20;;;;;;;7.82;4.13;;;;;;;;;;5359611;26;20019;-68
2024/04/18 07:04:46;;;;;;;6.85;3.50;;;;;;;;;;5356440;26;20077;-69
2024/04/18 07:07:13;;;;;;;8.48;4.38;;;;;;;;;;5354496;26;20001;-69
2024/04/18 07:09:39;;;;;;;8.82;4.28;;;;;;;;;;5350887;26;20095;-69
2024/04/18 07:12:06;;;;;;;6.63;3.42;;;;;;;;;;5353569;26;19997;-68
2024/04/18 07:14:31;;;;;;;8.00;3.83;;;;;;;;;;5356531;26;20019;-69
2024/04/18 07:16:58;;;;;;;8.13;3.38;;;;;;;;;;5361454;26;20008;-68
2024/04/18 07:19:24;;;;;;;6.93;3.13;;;;;;;;;;5368350;26;20046;-68
2024/04/18 07:21:50;;;;;;;6.00;3.20;;;;;;;;;;5367068;26;20004;-69
2024/04/18 07:24:16;;;;;;;6.05;3.45;;;;;;;;;;5366778;26;20401;-69
2024/04/18 07:26:42;;;;;;;6.45;3.28;;;;;;;;;;5367788;26;19996;-69
2024/04/18 07:29:08;;;;;;;5.97;2.90;;;;;;;;;;5359945;26;20284;-68
2024/04/18 07:31:34;;;;;;;5.22;2.88;;;;;;;;;;5355018;26;20001;-68
2024/04/18 07:34:00;;;;;;;5.50;2.97;;;;;;;;;;5365782;26;20466;-69
2024/04/18 07:36:26;;;;;;;5.78;2.63;;;;;;;;;;5372225;26;20123;-68
2024/04/18 07:38:52;;;;;;;5.93;2.25;;;;;;;;;;5371598;26;20023;-69
2024/04/18 07:41:18;;;;;;;6.32;2.90;;;;;;;;;;5364574;26;20124;-68
2024/04/18 07:43:44;;;;;;;4.03;2.15;;;;;;;;;;5358513;26;20000;-68
2024/04/18 07:46:12;;;;;;;5.82;2.33;;;;;;;;;;5369437;26;19996;-68
2024/04/18 07:48:39;;;;;;;4.00;2.30;;;;;;;;;;5367861;26;20532;-68
2024/04/18 07:51:05;;;;;;;4.30;2.20;;;;;;;;;;5358859;26;20006;-68
2024/04/18 07:53:30;;;;;;;4.68;2.50;;;;;;;;;;5365148;26;20081;-68
2024/04/18 07:55:56;;;;;;;3.35;1.90;;;;;;;;;;5319039;26;20013;-68
2024/04/18 07:58:22;;;;;;;4.28;2.65;;;;;;;;;;5356811;26;20386;-67
2024/04/18 08:00:50;;;;;;;3.80;2.10;;;;;;;;;;5373404;26;20122;-67
2024/04/18 08:03:16;;;;;;;5.15;1.63;;;;;;;;;;5355725;26;20014;-67
2024/04/18 08:05:42;;;;;;;3.95;1.92;;;;;;;;;;5358258;26;20020;-67
2024/04/18 08:08:08;;;;;;;2.45;1.27;;;;;;;;;;5352880;26;20141;-67
2024/04/18 08:10:34;;;;;;;2.95;1.20;;;;;;;;;;5362105;26;20004;-67
2024/04/18 08:13:00;;;;;;;2.40;1.10;;;;;;;;;;5366823;26;20140;-67
2024/04/18 08:15:26;;;;;;;3.22;1.83;;;;;;;;;;5360272;26;20015;-67
2024/04/18 08:17:52;;;;;;;2.95;1.30;;;;;;;;;;5342399;26;20016;-68
2024/04/18 08:20:20;;;;;;;3.45;1.55;;;;;;;;;;5355062;26;20000;-67
2024/04/18 08:22:46;;;;;;;2.58;1.42;;;;;;;;;;5368668;26;20714;-67
2024/04/18 08:25:12;;;;;;;4.13;1.88;;;;;;;;;;5368618;26;20015;-68
2024/04/18 08:27:38;;;;;;;3.67;1.67;;;;;;;;;;5363789;26;20003;-67
2024/04/18 08:30:04;;;;;;;3.38;1.50;;;;;;;;;;5353719;26;20028;-68
2024/04/18 08:32:30;;;;;;;2.95;1.35;;;;;;;;;;5361114;26;20024;-67
2024/04/18 08:34:56;;;;;;;3.05;1.83;;;;;;;;;;5363297;26;20039;-67
2024/04/18 08:37:22;;;;;;;3.10;1.45;;;;;;;;;;5355996;26;20020;-67
2024/04/18 08:39:47;;;;;;;2.95;1.40;;;;;;;;;;5357457;26;20414;-67
2024/04/18 08:42:15;;;;;;;2.47;1.27;;;;;;;;;;5354522;26;20305;-67
2024/04/18 08:44:41;;;;;;;1.92;1.20;;;;;;;;;;5345675;26;20036;-68
2024/04/18 08:47:08;;;;;;;4.85;1.23;;;;;;;;;;5357040;26;20188;-67
2024/04/18 08:49:38;;;;;;;4.00;1.38;;;;;;;;;;5349026;26;20112;-68
2024/04/18 08:52:06;;;;;;;2.63;1.30;;;;;;;;;;5363374;26;20024;-67
2024/04/18 08:54:32;;;;;;;2.40;0.90;;;;;;;;;;5346704;26;21108;-67
2024/04/18 08:57:00;;;;;;;1.83;1.08;;;;;;;;;;5340533;26;20025;-67
2024/04/18 08:59:26;;;;;;;3.83;1.55;;;;;;;;;;5360484;26;20511;-67
2024/04/18 09:01:52;;;;;;;3.35;1.42;;;;;;;;;;5369353;26;20081;-67
2024/04/18 09:04:18;;;;;;;4.10;1.20;;;;;;;;;;5363357;26;20001;-67
2024/04/18 09:06:44;;;;;;;2.72;1.27;;;;;;;;;;5364200;26;20010;-67
2024/04/18 09:09:18;;;;;;;2.33;1.10;;;;;;;;;;5366661;26;20000;-67
2024/04/18 09:11:47;;;;;;;3.13;1.23;;;;;;;;;;5363974;26;20068;-68
2024/04/18 09:14:13;;;;;;;1.83;1.20;;;;;;;;;;5349938;26;20000;-68
2024/04/18 09:16:38;;;;;;;1.60;1.10;;;;;;;;;;5357077;26;20000;-68
2024/04/18 09:19:04;;;;;;;1.83;1.08;;;;;;;;;;5363770;26;19996;-67
2024/04/18 09:21:32;;;;;;;3.55;1.30;;;;;;;;;;5363551;26;20000;-69
2024/04/18 09:23:58;;;;;;;2.05;1.35;;;;;;;;;;5364768;26;20000;-67
2024/04/18 09:26:27;;;;;;;1.83;1.23;;;;;;;;;;5365505;26;20308;-67
2024/04/18 09:28:53;;;;;;;2.05;1.08;;;;;;;;;;5367886;26;20105;-68
2024/04/18 09:31:19;;;;;;;1.95;1.08;;;;;;;;;;5363617;26;20492;-67
2024/04/18 09:33:46;;;;;;;2.15;1.52;;;;;;;;;;5354476;26;20016;-68
2024/04/18 09:36:13;;;;;;;2.92;1.17;;;;;;;;;;5359558;26;20322;-67
2024/04/18 09:38:43;;;;;;;2.08;1.23;;;;;;;;;;5358645;26;20016;-67
2024/04/18 09:41:15;;;;;;;3.15;1.20;;;;;;;;;;5349230;26;20014;-67
2024/04/18 09:43:45;;;;;;;2.20;1.25;;;;;;;;;;5356869;26;20015;-67
2024/04/18 09:46:12;;;;;;;1.73;1.15;;;;;;;;;;5362648;26;20441;-67
2024/04/18 09:48:38;;;;;;;1.65;1.00;;;;;;;;;;5355630;26;20013;-68
2024/04/18 09:51:06;;;;;;;2.17;1.00;;;;;;;;;;5354126;26;20153;-68
2024/04/18 09:53:32;;;;;;;1.98;1.00;;;;;;;;;;5363364;26;20150;-67
2024/04/18 09:55:59;;;;;;;2.40;0.80;;;;;;;;;;5347116;26;20380;-68
2024/04/18 09:58:27;;;;;;;4.45;1.30;;;;;;;;;;5363468;26;20290;-68
2024/04/18 10:00:52;;;;;;;2.15;1.13;;;;;;;;;;5361432;26;20043;-68
2024/04/18 10:03:19;;;;;;;2.30;1.00;;;;;;;;;;5350007;26;20059;-68
2024/04/18 10:05:48;;;;;;;2.13;1.08;;;;;;;;;;5364115;26;20040;-69
2024/04/18 10:08:15;;;;;;;1.83;1.15;;;;;;;;;;5362325;26;20075;-69
2024/04/18 10:10:42;;;;;;;1.98;1.02;;;;;;;;;;5353308;26;20018;-69
2024/04/18 10:13:09;;;;;;;2.08;0.90;;;;;;;;;;5338266;26;20457;-68
2024/04/18 10:15:35;;;;;;;2.55;0.98;;;;;;;;;;5353437;26;20020;-67
2024/04/18 10:18:11;;;;;;;1.85;0.82;;;;;;;;;;5358056;26;19996;-68
2024/04/18 10:20:42;;;;;;;1.10;0.70;;;;;;;;;;5342733;26;20001;-68
2024/04/18 10:23:11;;;;;;;1.63;0.73;;;;;;;;;;5371533;26;20062;-68
2024/04/18 10:25:40;;;;;;;2.33;0.90;;;;;;;;;;5346680;26;20036;-69
2024/04/18 10:28:23;;;;;;;3.35;0.98;;;;;;;;;;5357836;26;20157;-68
2024/04/18 10:30:49;;;;;;;1.63;0.80;;;;;;;;;;5356966;26;20012;-68
2024/04/18 10:33:15;;;;;;;2.20;1.08;;;;;;;;;;5362873;26;20001;-69
2024/04/18 10:35:41;;;;;;;0.90;0.70;;;;;;;;;;5362528;26;20011;-68
2024/04/18 10:38:07;;;;;;;1.90;0.90;;;;;;;;;;5368558;26;20059;-68
2024/04/18 10:40:34;;;;;;;0.88;0.63;;;;;;;;;;5364975;26;20000;-67
2024/04/18 10:43:13;;;;;;;1.08;0.60;;;;;;;;;;5360215;26;20394;-67
2024/04/18 10:45:40;;;;;;;1.20;0.70;;;;;;;;;;5350333;26;20040;-67
2024/04/18 10:48:06;;;;;;;0.98;0.65;;;;;;;;;;5355520;26;20040;-68
2024/04/18 10:50:32;;;;;;;3.60;0.93;;;;;;;;;;5359104;26;20158;-67
2024/04/18 10:53:03;;;;;;;1.05;0.77;;;;;;;;;;5359547;26;20323;-66
2024/04/18 10:55:29;;;;;;;1.33;0.80;;;;;;;;;;5358062;26;20013;-67
2024/04/18 10:57:54;;;;;;;2.17;0.50;;;;;;;;;;5362167;26;20011;-67
2024/04/18 11:00:20;;;;;;;1.27;0.75;;;;;;;;;;5369814;26;19997;-68
2024/04/18 11:02:47;;;;;;;0.77;0.50;;;;;;;;;;5368179;26;20004;-67
2024/04/18 11:05:13;;;;;;;1.25;0.85;;;;;;;;;;5355044;26;20019;-67
2024/04/18 11:07:39;;;;;;;1.50;0.50;;;;;;;;;;5364122;26;20133;-68
2024/04/18 11:10:05;;;;;;;2.38;0.70;;;;;;;;;;5361485;26;20028;-68
2024/04/18 11:12:31;;;;;;;0.45;0.40;;;;;;;;;;5364840;26;20150;-68
2024/04/18 11:14:58;;;;;;;1.10;0.55;;;;;;;;;;5366108;26;20062;-67
2024/04/18 11:17:24;;;;;;;1.17;0.30;;;;;;;;;;5372371;26;20437;-68
2024/04/18 11:19:50;;;;;;;2.63;0.68;;;;;;;;;;5370058;26;20004;-68
2024/04/18 11:22:17;;;;;;;1.33;0.68;;;;;;;;;;5359207;26;20019;-68
2024/04/18 11:24:43;;;;;;;0.93;0.50;;;;;;;;;;5369036;26;20056;-68
2024/04/18 11:27:09;;;;;;;0.70;0.57;;;;;;;;;;5368929;26;20004;-67
2024/04/18 11:29:35;;;;;;;2.03;0.47;;;;;;;;;;5357902;26;20091;-68
2024/04/18 11:32:08;;;;;;;1.15;0.50;;;;;;;;;;5361437;26;20072;-68
2024/04/18 11:34:34;;;;;;;0.98;0.47;;;;;;;;;;5365851;26;20132;-68
2024/04/18 11:37:03;;;;;;;1.88;0.75;;;;;;;;;;5368375;26;19996;-68
2024/04/18 11:39:29;;;;;;;0.60;0.50;;;;;;;;;;5355154;26;20351;-68
2024/04/18 11:41:55;;;;;;;0.50;0.40;;;;;;;;;;5362578;26;20000;-68
2024/04/18 11:44:20;;;;;;;1.02;0.50;;;;;;;;;;5370329;26;20054;-68
2024/04/18 11:46:48;;;;;;;2.83;0.60;;;;;;;;;;5365105;26;20042;-67
2024/04/18 11:49:14;;;;;;;0.38;0.30;;;;;;;;;;5368288;26;20320;-72
2024/04/18 11:51:40;;;;;;;0.98;0.50;;;;;;;;;;5360634;26;20016;-71
2024/04/18 11:54:06;;;;;;;0.85;0.40;;;;;;;;;;5351324;26;20011;-71
2024/04/18 11:56:32;;;;;;;0.85;0.40;;;;;;;;;;5360788;26;20000;-71
2024/04/18 11:58:59;;;;;;;0.60;0.38;;;;;;;;;;5367083;26;20032;-71
2024/04/18 12:01:25;;;;;;;1.00;0.40;;;;;;;;;;5355552;26;20385;-70
2024/04/18 12:03:51;;;;;;;0.45;0.22;;;;;;;;;;5362092;26;20019;-71
2024/04/18 12:06:17;;;;;;;1.10;0.55;;;;;;;;;;5361992;26;20000;-69
2024/04/18 12:08:43;;;;;;;1.15;0.43;;;;;;;;;;5369113;26;20397;-70
2024/04/18 12:11:08;;;;;;;2.22;0.60;;;;;;;;;;5364594;26;20052;-69
2024/04/18 12:13:34;;;;;;;0.55;0.40;;;;;;;;;;5365387;26;20015;-69
2024/04/18 12:16:00;;;;;;;1.42;0.50;;;;;;;;;;5369425;26;20000;-70
2024/04/18 12:18:26;;;;;;;0.57;0.55;;;;;;;;;;5362505;26;19997;-69
2024/04/18 12:20:52;;;;;;;1.13;0.47;;;;;;;;;;5363509;26;20086;-70
2024/04/18 12:23:18;;;;;;;2.28;0.35;;;;;;;;;;5363658;26;20115;-70
2024/04/18 12:25:44;;;;;;;0.30;0.30;;;;;;;;;;5358986;26;20000;-71
2024/04/18 12:28:10;;;;;;;0.35;0.30;;;;;;;;;;5363495;26;20028;-71
2024/04/18 12:30:36;;;;;;;0.38;0.38;;;;;;;;;;5369288;26;20012;-71
2024/04/18 12:33:01;;;;;;;1.25;0.40;;;;;;;;;;5356023;26;20039;-71
2024/04/18 12:35:27;;;;;;;0.52;0.22;;;;;;;;;;5367044;26;20066;-71
2024/04/18 12:37:54;;;;;;;0.57;0.30;;;;;;;;;;5350916;26;20076;-70
2024/04/18 12:40:20;;;;;;;0.38;0.30;;;;;;;;;;5366378;26;20012;-70
2024/04/18 12:42:46;;;;;;;0.80;0.32;;;;;;;;;;5363944;26;19996;-70
2024/04/18 12:45:12;;;;;;;1.17;0.28;;;;;;;;;;5366820;26;20556;-69
2024/04/18 12:47:38;;;;;;;1.30;0.60;;;;;;;;;;5360280;26;20325;-70
2024/04/18 12:50:04;;;;;;;0.75;0.40;;;;;;;;;;5368717;26;20000;-70
2024/04/18 12:52:30;;;;;;;0.45;0.35;;;;;;;;;;5350756;26;20118;-70
2024/04/18 12:54:56;;;;;;;0.50;0.30;;;;;;;;;;5359476;26;19992;-70
2024/04/18 12:57:22;;;;;;;1.25;0.60;;;;;;;;;;5364525;26;20014;-70
2024/04/18 12:59:48;;;;;;;2.95;0.45;;;;;;;;;;5366515;26;20019;-70
2024/04/18 13:02:16;;;;;;;0.85;0.45;;;;;;;;;;5363951;26;19996;-70
2024/04/18 13:04:43;;;;;;;1.55;0.73;;;;;;;;;;5350887;26;20081;-70
2024/04/18 13:07:09;;;;;;;1.00;0.38;;;;;;;;;;5354230;26;20004;-70
2024/04/18 13:09:34;;;;;;;0.82;0.60;;;;;;;;;;5359567;26;20039;-68
2024/04/18 13:12:04;;;;;;;1.33;0.30;;;;;;;;;;5368277;26;20413;-68
2024/04/18 13:14:30;;;;;;;0.77;0.40;;;;;;;;;;5360238;26;20008;-67
2024/04/18 13:16:56;;;;;;;0.88;0.30;;;;;;;;;;5365901;26;20294;-68
2024/04/18 13:19:22;;;;;;;0.98;0.30;;;;;;;;;;5370278;26;20004;-68
2024/04/18 13:21:48;;;;;;;0.30;0.30;;;;;;;;;;5359952;26;20039;-67
2024/04/18 13:24:15;;;;;;;0.82;0.30;;;;;;;;;;5356703;26;20024;-68
2024/04/18 13:26:41;;;;;;;1.40;0.52;;;;;;;;;;5357438;26;20001;-67
2024/04/18 13:29:07;;;;;;;0.93;0.30;;;;;;;;;;5345765;26;20079;-67
2024/04/18 13:31:33;;;;;;;1.73;0.47;;;;;;;;;;5359780;26;20019;-68
2024/04/18 13:33:59;;;;;;;0.68;0.20;;;;;;;;;;5368804;26;20012;-68
2024/04/18 13:36:25;;;;;;;1.08;0.30;;;;;;;;;;5366854;26;20074;-67
2024/04/18 13:38:51;;;;;;;1.02;0.40;;;;;;;;;;5350033;26;20001;-67
2024/04/18 13:41:19;;;;;;;0.40;0.30;;;;;;;;;;5345999;26;20412;-67
2024/04/18 13:43:45;;;;;;;0.95;0.35;;;;;;;;;;5356766;26;20433;-67
2024/04/18 13:46:11;;;;;;;2.70;0.40;;;;;;;;;;5356576;26;20035;-67
2024/04/18 13:48:38;;;;;;;0.93;0.50;;;;;;;;;;5367854;26;20000;-67
2024/04/18 13:51:04;;;;;;;0.25;0.25;;;;;;;;;;5354668;26;20005;-67
2024/04/18 13:53:30;;;;;;;1.45;0.50;;;;;;;;;;5363648;26;20113;-67
2024/04/18 13:55:56;;;;;;;0.38;0.30;;;;;;;;;;5359651;26;20126;-67
2024/04/18 13:58:22;;;;;;;1.30;0.52;;;;;;;;;;5367637;26;20000;-67
2024/04/18 14:00:48;;;;;;;0.75;0.30;;;;;;;;;;5366114;26;23542;-66
2024/04/18 14:03:16;;;;;;;0.65;0.40;;;;;;;;;;5350768;26;20137;-67
2024/04/18 14:05:42;;;;;;;0.47;0.22;;;;;;;;;;5359576;26;20127;-68
2024/04/18 14:08:08;;;;;;;3.05;0.50;;;;;;;;;;5365689;26;20010;-66
2024/04/18 14:10:34;;;;;;;0.65;0.20;;;;;;;;;;5355119;26;20080;-67
2024/04/18 14:13:00;;;;;;;0.65;0.40;;;;;;;;;;5342646;26;20005;-67
2024/04/18 14:15:35;;;;;;;0.55;0.22;;;;;;;;;;5351557;26;20039;-68
2024/04/18 14:20:47;;;;;;;0.43;0.20;;;;;;;;;;5351394;26;20093;-67
2024/04/18 14:23:13;;;;;;;2.13;0.40;;;;;;;;;;5364787;26;20008;-67
2024/04/18 14:25:39;;;;;;;0.40;0.25;;;;;;;;;;5350215;26;20435;-67
2024/04/18 14:28:05;;;;;;;0.82;0.40;;;;;;;;;;5353722;26;20066;-67
2024/04/18 14:30:31;;;;;;;1.55;0.45;;;;;;;;;;5360085;26;20074;-69
2024/04/18 14:32:57;;;;;;;0.90;0.38;;;;;;;;;;5366138;26;20131;-69
2024/04/18 14:35:23;;;;;;;0.50;0.38;;;;;;;;;;5363472;26;19996;-69
2024/04/18 14:37:49;;;;;;;0.30;0.10;;;;;;;;;;5356249;26;20039;-70
2024/04/18 14:40:15;;;;;;;0.20;0.20;;;;;;;;;;5351949;26;20356;-69
2024/04/18 14:42:41;;;;;;;1.45;0.30;;;;;;;;;;5371606;26;19996;-70